sensor_id;sensor_type;location;lat;lon;timestamp;pressure;altitude;pressure_sealevel;temperature;humidity
7760;BME280;3924;48.830;9.262;2022-12-05T00:01:34;98438.63;;;2.79;92.08
7760;BME280;3924;48.830;9.262;2022-12-05T00:04:03;98442.09;;;2.79;92.03
7760;BME280;3924;48.830;9.262;2022-12-05T00:06:31;98436.19;;;2.77;91.99
7760;BME280;3924;48.830;9.262;2022-12-05T00:08:58;98438.31;;;2.75;91.74
7760;BME280;3924;48.830;9.262;2022-12-05T00:11:27;98442.84;;;2.74;91.94
7760;BME280;3924;48.830;9.262;2022-12-05T00:13:57;98445.28;;;2.76;91.73
7760;BME280;3924;48.830;9.262;2022-12-05T00:16:26;98449.56;;;2.77;91.67
7760;BME280;3924;48.830;9.262;2022-12-05T00:18:52;98446.91;;;2.77;91.78
7760;BME280;3924;48.830;9.262;2022-12-05T00:21:25;98445.84;;;2.78;91.93
7760;BME280;3924;48.830;9.262;2022-12-05T00:23:53;98450.13;;;2.79;91.85
7760;BME280;3924;48.830;9.262;2022-12-05T00:26:21;98450.13;;;2.79;92.00
7760;BME280;3924;48.830;9.262;2022-12-05T00:28:49;98442.91;;;2.80;91.80
7760;BME280;3924;48.830;9.262;2022-12-05T00:31:18;98444.78;;;2.79;92.00
7760;BME280;3924;48.830;9.262;2022-12-05T00:33:45;98445.28;;;2.76;91.79
7760;BME280;3924;48.830;9.262;2022-12-05T00:36:17;98439.94;;;2.76;92.11
7760;BME280;3924;48.830;9.262;2022-12-05T00:38:44;98439.94;;;2.76;92.03
7760;BME280;3924;48.830;9.262;2022-12-05T00:41:19;98435.38;;;2.77;92.03
7760;BME280;3924;48.830;9.262;2022-12-05T00:43:46;98436.19;;;2.77;91.92
7760;BME280;3924;48.830;9.262;2022-12-05T00:46:19;98436.19;;;2.77;91.92
7760;BME280;3924;48.830;9.262;2022-12-05T00:48:46;98436.19;;;2.77;91.58
7760;BME280;3924;48.830;9.262;2022-12-05T00:53:38;98443.16;;;2.78;92.00
7760;BME280;3924;48.830;9.262;2022-12-05T00:56:08;98453.06;;;2.78;91.90
7760;BME280;3924;48.830;9.262;2022-12-05T00:58:35;98453.06;;;2.78;91.48
7760;BME280;3924;48.830;9.262;2022-12-05T01:01:13;98455.47;;;2.79;91.66
7760;BME280;3924;48.830;9.262;2022-12-05T01:03:41;98451.75;;;2.80;91.70
7760;BME280;3924;48.830;9.262;2022-12-05T01:08:36;98469.94;;;2.78;91.79
7760;BME280;3924;48.830;9.262;2022-12-05T01:11:04;98469.94;;;2.78;91.79
7760;BME280;3924;48.830;9.262;2022-12-05T01:13:32;98475.28;;;2.78;91.87
7760;BME280;3924;48.830;9.262;2022-12-05T01:15:58;98482.50;;;2.78;91.84
7760;BME280;3924;48.830;9.262;2022-12-05T01:18:26;98488.66;;;2.78;91.64
7760;BME280;3924;48.830;9.262;2022-12-05T01:20:53;98502.84;;;2.79;91.53
7760;BME280;3924;48.830;9.262;2022-12-05T01:23:21;98511.94;;;2.78;91.36
7760;BME280;3924;48.830;9.262;2022-12-05T01:25:49;98506.59;;;2.78;91.42
7760;BME280;3924;48.830;9.262;2022-12-05T01:28:17;98505.78;;;2.77;91.67
7760;BME280;3924;48.830;9.262;2022-12-05T01:30:47;98504.16;;;2.76;91.51
7760;BME280;3924;48.830;9.262;2022-12-05T01:33:15;98514.88;;;2.76;91.63
7760;BME280;3924;48.830;9.262;2022-12-05T01:35:43;98502.53;;;2.75;91.78
7760;BME280;3924;48.830;9.262;2022-12-05T01:38:11;98506.03;;;2.76;91.90
7760;BME280;3924;48.830;9.262;2022-12-05T01:40:39;98509.97;;;2.73;91.49
7760;BME280;3924;48.830;9.262;2022-12-05T01:43:17;98505.78;;;2.77;91.65
7760;BME280;3924;48.830;9.262;2022-12-05T01:45:45;98499.63;;;2.77;91.46
7760;BME280;3924;48.830;9.262;2022-12-05T01:48:18;98503.66;;;2.79;91.63
7760;BME280;3924;48.830;9.262;2022-12-05T01:50:47;98494.28;;;2.77;91.88
7760;BME280;3924;48.830;9.262;2022-12-05T01:53:16;98504.97;;;2.77;91.38
7760;BME280;3924;48.830;9.262;2022-12-05T01:55:45;98514.88;;;2.76;91.58
7760;BME280;3924;48.830;9.262;2022-12-05T01:58:12;98498.00;;;2.76;91.85
7760;BME280;3924;48.830;9.262;2022-12-05T02:00:42;98506.59;;;2.78;91.48
7760;BME280;3924;48.830;9.262;2022-12-05T02:03:15;98507.41;;;2.78;91.56
7760;BME280;3924;48.830;9.262;2022-12-05T02:05:46;98507.97;;;2.80;91.63
7760;BME280;3924;48.830;9.262;2022-12-05T02:08:13;98511.94;;;2.78;91.43
7760;BME280;3924;48.830;9.262;2022-12-05T02:10:44;98512.75;;;2.78;91.69
7760;BME280;3924;48.830;9.262;2022-12-05T02:13:31;98504.47;;;2.80;91.56
7760;BME280;3924;48.830;9.262;2022-12-05T02:18:58;98520.22;;;2.76;91.63
7760;BME280;3924;48.830;9.262;2022-12-05T02:21:54;98511.94;;;2.78;91.61
7760;BME280;3924;48.830;9.262;2022-12-05T02:30:11;98523.22;;;2.80;91.44
7760;BME280;3924;48.830;9.262;2022-12-05T02:40:57;98548.75;;;2.87;91.54
7760;BME280;3924;48.830;9.262;2022-12-05T02:43:51;98558.44;;;2.88;91.65
7760;BME280;3924;48.830;9.262;2022-12-05T02:46:22;98553.31;;;2.87;91.40
7760;BME280;3924;48.830;9.262;2022-12-05T02:48:55;98553.00;;;2.83;91.27
7760;BME280;3924;48.830;9.262;2022-12-05T02:51:24;98556.22;;;2.85;91.52
7760;BME280;3924;48.830;9.262;2022-12-05T02:53:56;98565.88;;;2.86;91.15
7760;BME280;3924;48.830;9.262;2022-12-05T02:56:26;98564.25;;;2.85;91.09
7760;BME280;3924;48.830;9.262;2022-12-05T02:58:54;98573.91;;;2.86;91.42
7760;BME280;3924;48.830;9.262;2022-12-05T03:01:24;98579.28;;;2.86;90.98
7760;BME280;3924;48.830;9.262;2022-12-05T03:03:54;98581.69;;;2.88;91.51
7760;BME280;3924;48.830;9.262;2022-12-05T03:06:34;98580.88;;;2.87;91.23
7760;BME280;3924;48.830;9.262;2022-12-05T03:09:06;98573.09;;;2.86;91.28
7760;BME280;3924;48.830;9.262;2022-12-05T03:11:40;98557.53;;;2.83;91.47
7760;BME280;3924;48.830;9.262;2022-12-05T03:14:16;98558.34;;;2.83;91.31
7760;BME280;3924;48.830;9.262;2022-12-05T03:16:51;98550.31;;;2.83;91.62
7760;BME280;3924;48.830;9.262;2022-12-05T03:19:25;98551.38;;;2.82;91.40
7760;BME280;3924;48.830;9.262;2022-12-05T03:22:05;98548.69;;;2.82;91.53
7760;BME280;3924;48.830;9.262;2022-12-05T03:24:35;98548.13;;;2.80;91.24
7760;BME280;3924;48.830;9.262;2022-12-05T03:27:14;98549.66;;;2.76;91.33
7760;BME280;3924;48.830;9.262;2022-12-05T03:35:30;98550.22;;;2.78;91.50
7760;BME280;3924;48.830;9.262;2022-12-05T03:38:12;98552.34;;;2.76;91.65
7760;BME280;3924;48.830;9.262;2022-12-05T03:40:46;98553.97;;;2.77;91.69
7760;BME280;3924;48.830;9.262;2022-12-05T03:43:28;98553.97;;;2.77;91.57
7760;BME280;3924;48.830;9.262;2022-12-05T03:46:02;98560.44;;;2.81;91.39
7760;BME280;3924;48.830;9.262;2022-12-05T03:51:14;98553.47;;;2.80;91.71
7760;BME280;3924;48.830;9.262;2022-12-05T03:54:01;98555.09;;;2.81;91.36
7760;BME280;3924;48.830;9.262;2022-12-05T03:56:40;98557.75;;;2.81;91.40
7760;BME280;3924;48.830;9.262;2022-12-05T03:59:20;98560.22;;;2.83;91.60
7760;BME280;3924;48.830;9.262;2022-12-05T04:01:49;98562.66;;;2.84;91.64
7760;BME280;3924;48.830;9.262;2022-12-05T04:04:27;98546.91;;;2.88;91.66
7760;BME280;3924;48.830;9.262;2022-12-05T04:06:56;98556.31;;;2.90;91.47
7760;BME280;3924;48.830;9.262;2022-12-05T04:09:47;98560.28;;;2.88;91.55
7760;BME280;3924;48.830;9.262;2022-12-05T04:12:20;98547.50;;;2.90;91.33
7760;BME280;3924;48.830;9.262;2022-12-05T04:14:54;98547.16;;;2.86;91.04
7760;BME280;3924;48.830;9.262;2022-12-05T04:17:43;98556.22;;;2.85;91.17
7760;BME280;3924;48.830;9.262;2022-12-05T04:20:37;98546.59;;;2.84;91.29
7760;BME280;3924;48.830;9.262;2022-12-05T04:23:24;98547.66;;;2.83;91.11
7760;BME280;3924;48.830;9.262;2022-12-05T04:29:07;98557.44;;;2.78;91.53
7760;BME280;3924;48.830;9.262;2022-12-05T04:33:49;98563.06;;;2.76;91.58
7760;BME280;3924;48.830;9.262;2022-12-05T04:36:30;98561.09;;;2.71;91.45
7760;BME280;3924;48.830;9.262;2022-12-05T04:39:03;98584.94;;;2.73;91.66
7760;BME280;3924;48.830;9.262;2022-12-05T04:41:43;98584.47;;;2.76;91.63
7760;BME280;3924;48.830;9.262;2022-12-05T04:44:19;98582.34;;;2.78;91.60
7760;BME280;3924;48.830;9.262;2022-12-05T04:46:52;98583.50;;;2.82;91.77
7760;BME280;3924;48.830;9.262;2022-12-05T04:49:23;98580.88;;;2.87;91.40
7760;BME280;3924;48.830;9.262;2022-12-05T04:51:55;98583.09;;;2.90;91.61
7760;BME280;3924;48.830;9.262;2022-12-05T04:54:27;98593.56;;;2.92;91.57
7760;BME280;3924;48.830;9.262;2022-12-05T04:57:00;98591.69;;;2.92;91.52
7760;BME280;3924;48.830;9.262;2022-12-05T04:59:30;98577.75;;;2.90;91.38
7760;BME280;3924;48.830;9.262;2022-12-05T05:02:02;98577.25;;;2.93;91.25
7760;BME280;3924;48.830;9.262;2022-12-05T05:04:45;98586.91;;;2.94;91.36
7760;BME280;3924;48.830;9.262;2022-12-05T05:07:13;98595.53;;;2.96;91.55
7760;BME280;3924;48.830;9.262;2022-12-05T05:09:42;98591.78;;;2.97;91.42
7760;BME280;3924;48.830;9.262;2022-12-05T05:12:09;98587.50;;;2.96;91.24
7760;BME280;3924;48.830;9.262;2022-12-05T05:14:44;98586.44;;;2.97;91.62
7760;BME280;3924;48.830;9.262;2022-12-05T05:17:10;98586.91;;;2.94;91.19
7760;BME280;3924;48.830;9.262;2022-12-05T05:19:37;98587.72;;;2.95;91.48
7760;BME280;3924;48.830;9.262;2022-12-05T05:22:04;98589.34;;;2.96;91.28
7760;BME280;3924;48.830;9.262;2022-12-05T05:24:30;98592.03;;;2.96;91.85
7760;BME280;3924;48.830;9.262;2022-12-05T05:26:57;98600.88;;;2.96;91.36
7760;BME280;3924;48.830;9.262;2022-12-05T05:29:24;98600.88;;;2.96;91.59
7760;BME280;3924;48.830;9.262;2022-12-05T05:31:51;98614.47;;;2.95;91.82
7760;BME280;3924;48.830;9.262;2022-12-05T05:34:18;98617.75;;;2.97;91.46
7760;BME280;3924;48.830;9.262;2022-12-05T05:36:44;98615.31;;;2.95;91.61
7760;BME280;3924;48.830;9.262;2022-12-05T05:39:13;98616.69;;;2.98;91.34
7760;BME280;3924;48.830;9.262;2022-12-05T05:41:41;98626.09;;;3.00;91.61
7760;BME280;3924;48.830;9.262;2022-12-05T05:44:08;98624.56;;;3.05;91.29
7760;BME280;3924;48.830;9.262;2022-12-05T05:46:35;98634.47;;;3.04;91.58
7760;BME280;3924;48.830;9.262;2022-12-05T05:49:02;98649.25;;;3.07;91.26
7760;BME280;3924;48.830;9.262;2022-12-05T05:51:29;98642.00;;;3.07;91.36
7760;BME280;3924;48.830;9.262;2022-12-05T05:53:59;98655.41;;;3.07;91.29
7760;BME280;3924;48.830;9.262;2022-12-05T05:56:27;98646.31;;;3.08;91.31
7760;BME280;3924;48.830;9.262;2022-12-05T05:58:59;98640.13;;;3.08;91.36
7760;BME280;3924;48.830;9.262;2022-12-05T06:01:28;98627.34;;;3.10;91.23
7760;BME280;3924;48.830;9.262;2022-12-05T06:03:56;98631.91;;;3.09;91.53
7760;BME280;3924;48.830;9.262;2022-12-05T06:06:23;98630.59;;;3.12;91.18
7760;BME280;3924;48.830;9.262;2022-12-05T06:08:50;98626.84;;;3.13;91.48
7760;BME280;3924;48.830;9.262;2022-12-05T06:11:21;98628.72;;;3.12;91.28
7760;BME280;3924;48.830;9.262;2022-12-05T06:13:54;98629.53;;;3.13;91.09
7760;BME280;3924;48.830;9.262;2022-12-05T06:16:21;98631.16;;;3.14;91.41
7760;BME280;3924;48.830;9.262;2022-12-05T06:18:48;98630.91;;;3.15;91.33
7760;BME280;3924;48.830;9.262;2022-12-05T06:21:15;98627.41;;;3.15;91.37
7760;BME280;3924;48.830;9.262;2022-12-05T06:23:44;98630.69;;;3.17;91.08
7760;BME280;3924;48.830;9.262;2022-12-05T06:26:14;98631.22;;;3.19;91.34
7760;BME280;3924;48.830;9.262;2022-12-05T06:28:41;98629.63;;;3.18;91.17
7760;BME280;3924;48.830;9.262;2022-12-05T06:31:11;98629.63;;;3.18;91.19
7760;BME280;3924;48.830;9.262;2022-12-05T06:33:38;98630.69;;;3.17;91.17
7760;BME280;3924;48.830;9.262;2022-12-05T06:36:08;98651.03;;;3.18;91.05
7760;BME280;3924;48.830;9.262;2022-12-05T06:38:36;98659.88;;;3.18;91.15
7760;BME280;3924;48.830;9.262;2022-12-05T06:41:09;98663.88;;;3.16;91.51
7760;BME280;3924;48.830;9.262;2022-12-05T06:43:37;98679.19;;;3.20;91.16
7760;BME280;3924;48.830;9.262;2022-12-05T06:46:05;98675.97;;;3.18;91.44
7760;BME280;3924;48.830;9.262;2022-12-05T06:48:31;98678.94;;;3.22;91.10
7760;BME280;3924;48.830;9.262;2022-12-05T06:50:58;98676.28;;;3.22;91.37
7760;BME280;3924;48.830;9.262;2022-12-05T06:53:26;98680.59;;;3.23;91.36
7760;BME280;3924;48.830;9.262;2022-12-05T06:55:58;98678.50;;;3.25;91.04
7760;BME280;3924;48.830;9.262;2022-12-05T06:58:26;98675.25;;;3.23;91.13
7760;BME280;3924;48.830;9.262;2022-12-05T07:00:53;98687.09;;;3.27;91.55
7760;BME280;3924;48.830;9.262;2022-12-05T07:03:39;98697.81;;;3.27;91.49
7760;BME280;3924;48.830;9.262;2022-12-05T07:06:07;98692.44;;;3.27;91.56
7760;BME280;3924;48.830;9.262;2022-12-05T07:08:34;98690.31;;;3.29;91.31
7760;BME280;3924;48.830;9.262;2022-12-05T07:11:02;98676.72;;;3.31;91.32
7760;BME280;3924;48.830;9.262;2022-12-05T07:13:29;98671.34;;;3.31;90.95
7760;BME280;3924;48.830;9.262;2022-12-05T07:15:55;98689.84;;;3.32;91.15
7760;BME280;3924;48.830;9.262;2022-12-05T07:18:25;98688.56;;;3.35;91.24
7760;BME280;3924;48.830;9.262;2022-12-05T07:21:04;98690.41;;;3.34;91.00
7760;BME280;3924;48.830;9.262;2022-12-05T07:23:40;98714.88;;;3.38;91.05
7760;BME280;3924;48.830;9.262;2022-12-05T07:26:14;98721.03;;;3.38;91.29
7760;BME280;3924;48.830;9.262;2022-12-05T07:28:41;98725.34;;;3.39;91.45
7760;BME280;3924;48.830;9.262;2022-12-05T07:31:14;98722.41;;;3.41;91.22
7760;BME280;3924;48.830;9.262;2022-12-05T07:33:48;98722.16;;;3.42;91.24
7760;BME280;3924;48.830;9.262;2022-12-05T07:36:18;98728.13;;;3.44;91.36
7760;BME280;3924;48.830;9.262;2022-12-05T07:38:45;98723.31;;;3.46;91.38
7760;BME280;3924;48.830;9.262;2022-12-05T07:41:25;98719.59;;;3.47;90.91
7760;BME280;3924;48.830;9.262;2022-12-05T07:43:53;98722.09;;;3.54;91.13
7760;BME280;3924;48.830;9.262;2022-12-05T07:46:22;98726.75;;;3.59;91.19
7760;BME280;3924;48.830;9.262;2022-12-05T07:48:50;98725.19;;;3.63;91.14
7760;BME280;3924;48.830;9.262;2022-12-05T07:51:18;98722.34;;;3.69;91.03
7760;BME280;3924;48.830;9.262;2022-12-05T07:53:45;98718.63;;;3.70;91.13
7760;BME280;3924;48.830;9.262;2022-12-05T07:56:14;98712.28;;;3.76;90.60
7760;BME280;3924;48.830;9.262;2022-12-05T07:58:43;98718.53;;;3.82;90.65
7760;BME280;3924;48.830;9.262;2022-12-05T08:01:16;98726.91;;;3.86;90.71
7760;BME280;3924;48.830;9.262;2022-12-05T08:03:43;98710.03;;;3.85;90.85
7760;BME280;3924;48.830;9.262;2022-12-05T08:06:13;98719.44;;;3.88;90.81
7760;BME280;3924;48.830;9.262;2022-12-05T08:08:44;98725.34;;;3.90;90.57
7760;BME280;3924;48.830;9.262;2022-12-05T08:11:13;98725.13;;;3.91;90.91
7760;BME280;3924;48.830;9.262;2022-12-05T08:13:43;98721.13;;;3.94;90.65
7760;BME280;3924;48.830;9.262;2022-12-05T08:16:12;98720.88;;;3.95;90.85
7760;BME280;3924;48.830;9.262;2022-12-05T08:18:39;98733.31;;;4.01;90.76
7760;BME280;3924;48.830;9.262;2022-12-05T08:21:10;98738.19;;;4.04;90.81
7760;BME280;3924;48.830;9.262;2022-12-05T08:23:38;98739.84;;;4.05;90.93
7760;BME280;3924;48.830;9.262;2022-12-05T08:26:11;98744.94;;;4.07;90.48
7760;BME280;3924;48.830;9.262;2022-12-05T08:28:38;98746.81;;;4.06;90.48
7760;BME280;3924;48.830;9.262;2022-12-05T08:31:16;98744.19;;;4.11;90.61
7760;BME280;3924;48.830;9.262;2022-12-05T08:33:43;98745.84;;;4.13;90.10
7760;BME280;3924;48.830;9.262;2022-12-05T08:36:13;98747.72;;;4.12;90.32
7760;BME280;3924;48.830;9.262;2022-12-05T08:38:41;98752.56;;;4.15;90.73
7760;BME280;3924;48.830;9.262;2022-12-05T08:41:11;98752.81;;;4.14;90.65
7760;BME280;3924;48.830;9.262;2022-12-05T08:43:39;98757.13;;;4.15;90.31
7760;BME280;3924;48.830;9.262;2022-12-05T08:46:06;98766.50;;;4.12;90.34
7760;BME280;3924;48.830;9.262;2022-12-05T08:48:33;98765.59;;;4.06;90.61
7760;BME280;3924;48.830;9.262;2022-12-05T08:51:04;98777.13;;;4.07;90.73
7760;BME280;3924;48.830;9.262;2022-12-05T08:53:31;98766.06;;;4.03;91.11
7760;BME280;3924;48.830;9.262;2022-12-05T08:56:02;98773.06;;;4.04;90.80
7760;BME280;3924;48.830;9.262;2022-12-05T08:58:30;98770.38;;;4.04;90.64
7760;BME280;3924;48.830;9.262;2022-12-05T09:01:08;98762.31;;;4.04;90.78
7760;BME280;3924;48.830;9.262;2022-12-05T09:03:36;98772.03;;;4.05;90.83
7760;BME280;3924;48.830;9.262;2022-12-05T09:06:10;98770.97;;;4.06;90.75
7760;BME280;3924;48.830;9.262;2022-12-05T09:08:37;98772.88;;;4.11;90.60
7760;BME280;3924;48.830;9.262;2022-12-05T09:11:09;98772.41;;;4.14;90.76
7760;BME280;3924;48.830;9.262;2022-12-05T09:13:36;98773.78;;;4.17;90.89
7760;BME280;3924;48.830;9.262;2022-12-05T09:16:08;98783.78;;;4.21;90.39
7760;BME280;3924;48.830;9.262;2022-12-05T09:18:35;98788.09;;;4.22;90.44
7760;BME280;3924;48.830;9.262;2022-12-05T09:21:10;98792.72;;;4.27;90.51
7760;BME280;3924;48.830;9.262;2022-12-05T09:23:37;98789.78;;;4.28;90.19
7760;BME280;3924;48.830;9.262;2022-12-05T09:26:06;98801.34;;;4.29;90.74
7760;BME280;3924;48.830;9.262;2022-12-05T09:28:33;98798.41;;;4.30;90.54
7760;BME280;3924;48.830;9.262;2022-12-05T09:31:03;98797.94;;;4.33;90.37
7760;BME280;3924;48.830;9.262;2022-12-05T09:33:32;98802.47;;;4.33;90.64
7760;BME280;3924;48.830;9.262;2022-12-05T09:36:08;98803.28;;;4.33;90.29
7760;BME280;3924;48.830;9.262;2022-12-05T09:38:37;98807.09;;;4.37;90.25
7760;BME280;3924;48.830;9.262;2022-12-05T09:43:59;98802.31;;;4.39;90.38
7760;BME280;3924;48.830;9.262;2022-12-05T09:46:46;98802.63;;;4.43;90.27
7760;BME280;3924;48.830;9.262;2022-12-05T09:49:17;98801.09;;;4.47;90.46
7760;BME280;3924;48.830;9.262;2022-12-05T09:51:47;98807.31;;;4.53;90.44
7760;BME280;3924;48.830;9.262;2022-12-05T09:54:21;98812.50;;;4.59;90.30
7760;BME280;3924;48.830;9.262;2022-12-05T09:56:49;98802.34;;;4.61;90.05
7760;BME280;3924;48.830;9.262;2022-12-05T09:59:18;98810.97;;;4.63;89.82
7760;BME280;3924;48.830;9.262;2022-12-05T10:01:56;98807.22;;;4.64;90.06
7760;BME280;3924;48.830;9.262;2022-12-05T10:04:50;98806.66;;;4.62;90.02
7760;BME280;3924;48.830;9.262;2022-12-05T10:08:09;98814.16;;;4.60;90.03
7760;BME280;3924;48.830;9.262;2022-12-05T10:10:59;98804.97;;;4.56;90.10
7760;BME280;3924;48.830;9.262;2022-12-05T10:14:01;98811.38;;;4.55;89.86
7760;BME280;3924;48.830;9.262;2022-12-05T10:16:38;98801.94;;;4.53;89.85
7760;BME280;3924;48.830;9.262;2022-12-05T10:19:15;98814.56;;;4.52;90.25
7760;BME280;3924;48.830;9.262;2022-12-05T10:21:58;98809.94;;;4.48;90.17
7760;BME280;3924;48.830;9.262;2022-12-05T10:24:37;98813.44;;;4.48;90.25
7760;BME280;3924;48.830;9.262;2022-12-05T10:27:32;98813.44;;;4.48;90.39
7760;BME280;3924;48.830;9.262;2022-12-05T10:30:26;98809.13;;;4.47;90.22
7760;BME280;3924;48.830;9.262;2022-12-05T10:32:57;98806.50;;;4.52;90.16
7760;BME280;3924;48.830;9.262;2022-12-05T10:35:35;98806.03;;;4.55;90.21
7760;BME280;3924;48.830;9.262;2022-12-05T10:38:10;98804.44;;;4.59;90.51
7760;BME280;3924;48.830;9.262;2022-12-05T10:40:40;98803.41;;;4.60;90.42
7760;BME280;3924;48.830;9.262;2022-12-05T10:43:12;98796.47;;;4.64;90.46
7760;BME280;3924;48.830;9.262;2022-12-05T10:45:44;98796.00;;;4.68;90.20
7760;BME280;3924;48.830;9.262;2022-12-05T10:48:14;98800.59;;;4.72;90.22
7760;BME280;3924;48.830;9.262;2022-12-05T10:50:42;98800.41;;;4.79;90.01
7760;BME280;3924;48.830;9.262;2022-12-05T10:53:16;98804.31;;;4.88;90.01
7760;BME280;3924;48.830;9.262;2022-12-05T10:55:47;98803.28;;;4.94;89.58
7760;BME280;3924;48.830;9.262;2022-12-05T10:58:34;98803.28;;;4.94;89.96
7760;BME280;3924;48.830;9.262;2022-12-05T11:01:07;98803.88;;;4.96;90.03
7760;BME280;3924;48.830;9.262;2022-12-05T11:03:37;98802.81;;;4.97;89.80
7760;BME280;3924;48.830;9.262;2022-12-05T11:06:23;98800.41;;;5.01;89.90
7760;BME280;3924;48.830;9.262;2022-12-05T11:09:13;98797.53;;;5.07;89.78
7760;BME280;3924;48.830;9.262;2022-12-05T11:11:55;98790.69;;;5.16;89.65
7760;BME280;3924;48.830;9.262;2022-12-05T11:14:25;98782.19;;;5.25;89.73
7760;BME280;3924;48.830;9.262;2022-12-05T11:16:57;98784.88;;;5.25;89.43
7760;BME280;3924;48.830;9.262;2022-12-05T11:19:29;98795.63;;;5.25;89.55
7760;BME280;3924;48.830;9.262;2022-12-05T11:21:56;98800.44;;;5.22;89.66
7760;BME280;3924;48.830;9.262;2022-12-05T11:24:30;98795.53;;;5.19;89.55
7760;BME280;3924;48.830;9.262;2022-12-05T11:27:17;98793.94;;;5.18;89.57
7760;BME280;3924;48.830;9.262;2022-12-05T11:32:27;98787.84;;;5.28;89.66
7760;BME280;3924;48.830;9.262;2022-12-05T11:37:46;98781.38;;;5.51;89.60
7760;BME280;3924;48.830;9.262;2022-12-05T11:40:36;98777.09;;;5.55;89.27
7760;BME280;3924;48.830;9.262;2022-12-05T11:48:37;98776.78;;;5.79;89.10
7760;BME280;3924;48.830;9.262;2022-12-05T11:56:37;98776.28;;;5.82;89.06
7760;BME280;3924;48.830;9.262;2022-12-05T12:08:25;98774.56;;;5.70;89.31
7760;BME280;3924;48.830;9.262;2022-12-05T12:10:56;98772.94;;;5.69;89.12
7760;BME280;3924;48.830;9.262;2022-12-05T12:30:13;98773.44;;;5.66;89.12
7760;BME280;3924;48.830;9.262;2022-12-05T12:38:07;98773.97;;;5.63;89.84
7760;BME280;3924;48.830;9.262;2022-12-05T12:40:52;98773.97;;;5.63;89.33
7760;BME280;3924;48.830;9.262;2022-12-05T12:46:20;98774.00;;;5.68;89.10
7760;BME280;3924;48.830;9.262;2022-12-05T12:51:28;98771.91;;;5.75;89.02
7760;BME280;3924;48.830;9.262;2022-12-05T12:57:24;98765.81;;;5.85;89.29
7760;BME280;3924;48.830;9.262;2022-12-05T13:00:09;98761.53;;;5.89;88.99
7760;BME280;3924;48.830;9.262;2022-12-05T13:02:50;98761.88;;;5.93;88.96
7760;BME280;3924;48.830;9.262;2022-12-05T13:05:44;98755.69;;;5.92;88.65
7760;BME280;3924;48.830;9.262;2022-12-05T13:10:47;98753.25;;;5.91;88.83
7760;BME280;3924;48.830;9.262;2022-12-05T13:13:21;98755.69;;;5.92;89.10
7760;BME280;3924;48.830;9.262;2022-12-05T13:15:53;98760.25;;;5.92;89.51
7760;BME280;3924;48.830;9.262;2022-12-05T13:18:24;98760.72;;;5.89;88.32
7760;BME280;3924;48.830;9.262;2022-12-05T13:20:53;98765.81;;;5.85;88.60
7760;BME280;3924;48.830;9.262;2022-12-05T13:23:23;98760.13;;;5.82;89.11
7760;BME280;3924;48.830;9.262;2022-12-05T13:25:55;98760.66;;;5.79;89.36
7760;BME280;3924;48.830;9.262;2022-12-05T13:30:58;98765.44;;;5.71;89.38
7760;BME280;3924;48.830;9.262;2022-12-05T13:33:45;98760.81;;;5.67;88.70
7760;BME280;3924;48.830;9.262;2022-12-05T13:36:20;98758.38;;;5.65;89.39
7760;BME280;3924;48.830;9.262;2022-12-05T13:39:17;98761.06;;;5.65;89.20
7760;BME280;3924;48.830;9.262;2022-12-05T13:42:03;98757.31;;;5.66;89.28
7760;BME280;3924;48.830;9.262;2022-12-05T13:44:43;98764.84;;;5.69;89.20
7760;BME280;3924;48.830;9.262;2022-12-05T13:50:09;98764.31;;;5.67;88.95
7760;BME280;3924;48.830;9.262;2022-12-05T13:53:03;98772.31;;;5.62;89.29
7760;BME280;3924;48.830;9.262;2022-12-05T13:55:38;98771.22;;;5.58;88.78
7760;BME280;3924;48.830;9.262;2022-12-05T14:00:45;98783.53;;;5.49;89.49
7760;BME280;3924;48.830;9.262;2022-12-05T14:06:00;98791.47;;;5.39;89.37
7760;BME280;3924;48.830;9.262;2022-12-05T14:19:12;98793.47;;;5.27;89.81
7760;BME280;3924;48.830;9.262;2022-12-05T14:32:21;98803.88;;;5.18;89.45
7760;BME280;3924;48.830;9.262;2022-12-05T14:37:54;98796.56;;;5.13;89.46
7760;BME280;3924;48.830;9.262;2022-12-05T14:40:31;98801.94;;;5.13;89.86
7760;BME280;3924;48.830;9.262;2022-12-05T14:43:02;98802.44;;;5.10;89.86
7760;BME280;3924;48.830;9.262;2022-12-05T14:45:36;98810.75;;;5.09;89.42
7760;BME280;3924;48.830;9.262;2022-12-05T14:48:31;98812.38;;;5.10;89.58
7760;BME280;3924;48.830;9.262;2022-12-05T14:50:59;98808.56;;;5.06;89.97
7760;BME280;3924;48.830;9.262;2022-12-05T14:53:32;98822.25;;;5.04;89.96
7760;BME280;3924;48.830;9.262;2022-12-05T15:01:27;98813.84;;;5.01;89.71
7760;BME280;3924;48.830;9.262;2022-12-05T15:04:14;98807.69;;;5.00;90.13
7760;BME280;3924;48.830;9.262;2022-12-05T15:09:28;98804.94;;;4.95;90.00
7760;BME280;3924;48.830;9.262;2022-12-05T15:12:11;98813.56;;;4.97;89.73
7760;BME280;3924;48.830;9.262;2022-12-05T15:15:10;98808.66;;;4.94;89.99
7760;BME280;3924;48.830;9.262;2022-12-05T15:18:02;98810.53;;;4.93;89.58
7760;BME280;3924;48.830;9.262;2022-12-05T15:26:05;98811.31;;;4.89;90.03
7760;BME280;3924;48.830;9.262;2022-12-05T15:29:30;98801.84;;;4.86;90.71
7760;BME280;3924;48.830;9.262;2022-12-05T15:32:05;98806.41;;;4.86;89.91
7760;BME280;3924;48.830;9.262;2022-12-05T15:34:53;98815.00;;;4.83;90.04
7760;BME280;3924;48.830;9.262;2022-12-05T15:40:17;98829.97;;;4.79;89.62
7760;BME280;3924;48.830;9.262;2022-12-05T15:42:54;98832.81;;;4.72;89.78
7760;BME280;3924;48.830;9.262;2022-12-05T15:45:27;98834.63;;;4.66;90.27
7760;BME280;3924;48.830;9.262;2022-12-05T15:58:35;98846.44;;;4.32;91.28
7760;BME280;3924;48.830;9.262;2022-12-05T16:01:08;98855.25;;;4.27;90.73
7760;BME280;3924;48.830;9.262;2022-12-05T16:06:24;98859.22;;;4.25;90.94
7760;BME280;3924;48.830;9.262;2022-12-05T16:08:53;98848.66;;;4.18;90.55
7760;BME280;3924;48.830;9.262;2022-12-05T16:11:21;98852.41;;;4.17;90.45
7760;BME280;3924;48.830;9.262;2022-12-05T16:13:50;98845.91;;;4.13;90.66
7760;BME280;3924;48.830;9.262;2022-12-05T16:16:22;98849.66;;;4.12;90.77
7760;BME280;3924;48.830;9.262;2022-12-05T16:19:02;98851.50;;;4.11;90.88
7760;BME280;3924;48.830;9.262;2022-12-05T16:21:37;98854.69;;;4.08;90.58
7760;BME280;3924;48.830;9.262;2022-12-05T16:24:17;98852.72;;;4.04;90.92
7760;BME280;3924;48.830;9.262;2022-12-05T16:26:55;98865.91;;;4.05;90.78
7760;BME280;3924;48.830;9.262;2022-12-05T16:29:29;98858.88;;;4.04;90.90
7760;BME280;3924;48.830;9.262;2022-12-05T16:31:57;98862.97;;;4.07;91.09
7760;BME280;3924;48.830;9.262;2022-12-05T16:34:25;98873.44;;;4.08;91.22
7760;BME280;3924;48.830;9.262;2022-12-05T16:36:54;98874.00;;;4.10;91.14
7760;BME280;3924;48.830;9.262;2022-12-05T16:39:23;98879.97;;;4.13;91.13
7760;BME280;3924;48.830;9.262;2022-12-05T16:41:52;98871.69;;;4.14;91.02
7760;BME280;3924;48.830;9.262;2022-12-05T16:44:52;98875.16;;;4.15;90.98
7760;BME280;3924;48.830;9.262;2022-12-05T16:47:25;98871.44;;;4.16;90.90